Time;durP1;ratioP1;P1;durP2;ratioP2;P2;SDS_P1;SDS_P2;PMS_P1;PMS_P2;Temp;Humidity;BMP_temperature;BMP_pressure;BME280_temperature;BME280_humidity;BME280_pressure;Samples;Min_cycle;Max_cycle;Signal;HPM_P1;HPM_P2
2021/03/18 00:00:53;;;;;;;4.05;2.95;;;;;;;5.62;100.00;100425.19;4880912;29;20033;-74
2021/03/18 00:03:40;;;;;;;4.03;3.30;;;;;;;6.01;100.00;100412.94;4867730;29;20033;-75
2021/03/18 00:06:26;;;;;;;4.68;3.45;;;;;;;5.67;100.00;100408.72;4881242;29;20481;-74
2021/03/18 00:09:16;;;;;;;5.35;3.55;;;;;;;5.83;100.00;100401.75;4881194;29;20025;-74
2021/03/18 00:12:02;;;;;;;4.82;3.40;;;;;;;5.69;100.00;100401.75;4880985;29;20044;-75
2021/03/18 00:14:48;;;;;;;4.05;3.25;;;;;;;5.72;100.00;100411.28;4881437;29;20029;-74
2021/03/18 00:17:34;;;;;;;4.10;3.20;;;;;;;6.05;100.00;100406.00;4880611;29;20060;-75
2021/03/18 00:20:19;;;;;;;4.38;3.28;;;;;;;5.69;100.00;100411.28;4881469;29;20120;-75
2021/03/18 00:23:05;;;;;;;3.80;3.00;;;;;;;5.60;100.00;100406.13;4880959;29;20114;-74
2021/03/18 00:25:51;;;;;;;5.07;3.45;;;;;;;6.01;100.00;100404.28;4867666;29;20111;-74
2021/03/18 00:28:37;;;;;;;4.28;2.92;;;;;;;5.69;100.00;100409.56;4880281;29;20025;-74
2021/03/18 00:31:26;;;;;;;4.65;3.40;;;;;;;5.55;100.00;100400.06;4880414;29;20161;-74
2021/03/18 00:34:11;;;;;;;4.10;3.10;;;;;;;6.06;100.00;100398.19;4881157;29;20105;-74
2021/03/18 00:36:57;;;;;;;4.25;3.28;;;;;;;5.93;100.00;100401.72;4880737;29;20126;-74
2021/03/18 00:39:43;;;;;;;4.68;3.42;;;;;;;5.95;100.00;100399.97;4880612;29;20029;-75
2021/03/18 00:42:29;;;;;;;3.85;3.05;;;;;;;5.87;100.00;100393.06;4879857;29;20032;-75
2021/03/18 00:45:15;;;;;;;3.88;3.20;;;;;;;5.75;100.00;100400.88;4867080;29;20033;-73
2021/03/18 00:48:02;;;;;;;3.47;2.97;;;;;;;5.70;100.00;100397.44;4880362;29;20374;-73
2021/03/18 00:50:52;;;;;;;4.32;3.13;;;;;;;5.17;100.00;100406.19;4867650;29;20053;-73
2021/03/18 00:53:41;;;;;;;4.22;3.35;;;;;;;5.54;100.00;100407.00;4866499;29;20438;-74
2021/03/18 00:56:27;;;;;;;3.72;3.00;;;;;;;5.61;100.00;100402.63;4880711;29;20040;-75
2021/03/18 00:59:12;;;;;;;3.97;3.00;;;;;;;5.81;100.00;100393.97;4879953;29;20033;-75
2021/03/18 01:01:58;;;;;;;4.40;3.50;;;;;;;5.84;100.00;100383.56;4868095;29;20498;-74
2021/03/18 01:04:45;;;;;;;3.80;3.30;;;;;;;6.00;100.00;100385.22;4866508;29;20163;-75
2021/03/18 01:07:30;;;;;;;4.00;3.05;;;;;;;5.84;100.00;100385.28;4867431;29;20029;-75
2021/03/18 01:10:16;;;;;;;3.67;2.92;;;;;;;5.67;100.00;100380.13;4880503;29;20037;-75
2021/03/18 01:13:02;;;;;;;4.55;3.30;;;;;;;5.97;100.00;100381.75;4879705;29;20137;-74
2021/03/18 01:15:55;;;;;;;4.47;3.20;;;;;;;6.25;100.00;100378.16;4866829;29;20109;-75
2021/03/18 01:18:48;;;;;;;4.15;3.40;;;;;;;5.92;100.00;100376.59;4880077;29;20112;-74
2021/03/18 01:21:40;;;;;;;3.55;3.10;;;;;;;5.83;100.00;100374.00;4880131;29;20348;-75
2021/03/18 01:24:26;;;;;;;3.92;3.13;;;;;;;5.94;100.00;100376.59;4878927;29;20025;-75
2021/03/18 01:27:12;;;;;;;4.40;3.35;;;;;;;6.18;100.00;100369.53;4880676;29;20033;-74
2021/03/18 01:29:58;;;;;;;3.67;3.15;;;;;;;5.74;100.00;100373.19;4879516;29;20029;-75
2021/03/18 01:32:43;;;;;;;3.50;3.10;;;;;;;6.04;100.00;100381.75;4879481;29;20021;-75
2021/03/18 01:35:31;;;;;;;4.43;3.38;;;;;;;5.72;100.00;100380.97;4866933;29;20105;-75
2021/03/18 01:38:16;;;;;;;3.10;2.80;;;;;;;5.83;100.00;100391.38;4880123;29;20065;-75
2021/03/18 01:41:03;;;;;;;5.25;3.78;;;;;;;5.63;100.00;100390.53;4879661;29;20128;-75
2021/03/18 01:43:49;;;;;;;4.13;3.50;;;;;;;5.62;100.00;100389.66;4879504;29;20473;-74
2021/03/18 01:46:36;;;;;;;4.88;3.65;;;;;;;6.10;100.00;100376.50;4878814;29;20037;-74
2021/03/18 01:49:22;;;;;;;5.30;3.97;;;;;;;6.21;100.00;100379.91;4880085;29;20348;-74
2021/03/18 01:52:07;;;;;;;4.95;4.00;;;;;;;6.23;100.00;100374.72;4879214;29;20053;-74
2021/03/18 01:54:53;;;;;;;4.82;3.42;;;;;;;5.44;100.00;100387.13;4879354;29;20128;-74
2021/03/18 01:57:39;;;;;;;4.97;4.10;;;;;;;5.42;100.00;100386.22;4866726;29;20041;-74
2021/03/18 02:00:27;;;;;;;5.25;4.10;;;;;;;5.87;100.00;100387.88;4879172;29;20029;-74
2021/03/18 02:03:13;;;;;;;5.70;4.20;;;;;;;5.45;100.00;100391.44;4880375;29;20101;-75
2021/03/18 02:05:59;;;;;;;5.28;4.25;;;;;;;5.73;100.00;100394.81;4879182;29;20124;-75
2021/03/18 02:08:45;;;;;;;6.93;4.40;;;;;;;6.09;100.00;100394.69;4879442;29;20025;-75
2021/03/18 02:11:31;;;;;;;5.60;4.53;;;;;;;6.15;100.00;100386.88;4878568;29;20040;-75
2021/03/18 02:14:17;;;;;;;5.75;4.40;;;;;;;5.99;100.00;100393.88;4866759;29;20114;-74
2021/03/18 02:17:07;;;;;;;6.60;4.40;;;;;;;5.97;100.00;100385.22;4879034;29;20514;-74
2021/03/18 02:20:37;;;;;;;8.40;4.97;;;;;;;6.33;100.00;100395.44;4866612;29;20422;-74
2021/03/18 02:23:42;;;;;;;7.32;5.50;;;;;;;6.17;100.00;100391.22;4873623;29;20124;-75
2021/03/18 02:26:57;;;;;;;5.93;4.97;;;;;;;6.32;100.00;100406.75;4880647;29;20025;-73
2021/03/18 02:30:14;;;;;;;8.15;5.47;;;;;;;6.37;100.00;100404.09;4883018;29;20029;-76
2021/03/18 02:33:15;;;;;;;6.65;5.65;;;;;;;6.54;100.00;100412.66;4869903;29;20053;-74
2021/03/18 02:36:08;;;;;;;7.57;5.50;;;;;;;6.47;100.00;100411.00;4869100;29;20025;-74
2021/03/18 02:39:05;;;;;;;7.97;5.88;;;;;;;6.70;100.00;100415.16;4883122;29;20025;-74
2021/03/18 02:41:59;;;;;;;6.68;5.57;;;;;;;6.67;100.00;100416.94;4869484;29;20370;-75
2021/03/18 02:44:47;;;;;;;8.95;5.82;;;;;;;6.03;100.00;100413.78;4882317;29;20534;-74
2021/03/18 02:47:35;;;;;;;8.30;6.90;;;;;;;6.50;100.00;100421.34;4882693;29;20033;-74
2021/03/18 02:50:22;;;;;;;8.02;6.57;;;;;;;6.73;100.00;100415.16;4882787;29;20044;-74
2021/03/18 02:53:09;;;;;;;8.88;6.95;;;;;;;6.27;100.00;100420.63;4881826;29;20057;-74
2021/03/18 02:55:58;;;;;;;8.82;7.07;;;;;;;6.38;100.00;100426.66;4882284;29;20069;-74
2021/03/18 02:58:46;;;;;;;8.80;6.93;;;;;;;6.30;100.00;100416.28;4869117;29;20021;-75
2021/03/18 03:01:33;;;;;;;9.77;7.68;;;;;;;5.85;100.00;100431.19;4882356;29;20456;-74
2021/03/18 03:04:20;;;;;;;10.27;7.57;;;;;;;6.42;100.00;100430.94;4868576;29;20036;-74
2021/03/18 03:07:07;;;;;;;9.40;7.47;;;;;;;6.08;100.00;100429.38;4881804;29;20063;-73
2021/03/18 03:09:55;;;;;;;9.93;7.70;;;;;;;6.47;100.00;100430.06;4882418;29;20370;-74
2021/03/18 03:12:41;;;;;;;12.07;8.75;;;;;;;5.98;100.00;100440.72;4882429;29;20044;-73
2021/03/18 03:15:29;;;;;;;11.57;8.10;;;;;;;6.07;100.00;100432.88;4881839;29;20075;-74
2021/03/18 03:18:17;;;;;;;11.60;8.73;;;;;;;6.31;100.00;100435.38;4881942;29;20128;-74
2021/03/18 03:21:05;;;;;;;12.73;9.48;;;;;;;5.93;100.00;100443.31;4881804;29;20039;-74
2021/03/18 03:23:51;;;;;;;13.75;10.05;;;;;;;6.07;100.00;100451.06;4881231;29;20036;-73
2021/03/18 03:26:38;;;;;;;13.75;9.35;;;;;;;6.23;100.00;100440.56;4881640;29;20110;-74
2021/03/18 03:29:24;;;;;;;12.48;8.85;;;;;;;6.46;100.00;100443.94;4868908;29;20048;-74
2021/03/18 03:32:11;;;;;;;13.73;10.20;;;;;;;6.35;100.00;100445.72;4868312;29;20048;-74
2021/03/18 03:34:57;;;;;;;11.38;9.55;;;;;;;6.45;100.00;100454.34;4868811;29;20032;-74
2021/03/18 03:37:45;;;;;;;13.25;9.88;;;;;;;6.56;100.00;100450.84;4868013;29;20033;-74
2021/03/18 03:40:31;;;;;;;14.10;10.00;;;;;;;6.38;100.00;100458.72;4881663;29;20037;-74
2021/03/18 03:43:18;;;;;;;14.23;9.60;;;;;;;6.23;100.00;100464.00;4881342;29;20070;-74
2021/03/18 03:46:05;;;;;;;15.15;10.30;;;;;;;6.39;100.00;100457.84;4881073;29;20452;-74
2021/03/18 03:48:51;;;;;;;15.52;10.40;;;;;;;6.16;100.00;100471.84;4880980;29;20473;-74
2021/03/18 03:52:00;;;;;;;14.10;10.15;;;;;;;6.42;100.00;100469.97;4881369;29;20036;-74
2021/03/18 03:54:56;;;;;;;13.48;9.88;;;;;;;6.19;100.00;100470.06;4882030;29;20025;-74
2021/03/18 03:58:01;;;;;;;13.80;10.27;;;;;;;6.67;100.00;100472.44;4881028;29;20088;-75
2021/03/18 04:00:48;;;;;;;13.73;10.10;;;;;;;6.49;100.00;100479.47;4881916;29;20037;-74
2021/03/18 04:03:35;;;;;;;13.82;9.77;;;;;;;6.80;100.00;100478.47;4868051;29;20043;-73
2021/03/18 04:06:22;;;;;;;13.65;9.85;;;;;;;6.54;100.00;100481.19;4881713;29;20467;-73
2021/03/18 04:09:11;;;;;;;14.50;10.45;;;;;;;6.58;100.00;100475.09;4880951;29;20028;-74
2021/03/18 04:11:59;;;;;;;14.05;9.82;;;;;;;6.32;100.00;100481.31;4880409;29;20029;-74
2021/03/18 04:15:10;;;;;;;14.50;9.50;;;;;;;6.49;100.00;100482.09;4881252;29;20040;-74
2021/03/18 04:17:58;;;;;;;17.27;10.73;;;;;;;6.45;100.00;100485.56;4881405;29;20029;-74
2021/03/18 04:20:45;;;;;;;13.75;9.73;;;;;;;6.19;100.00;100488.28;4880486;29;20040;-73
2021/03/18 04:23:31;;;;;;;14.65;10.27;;;;;;;6.15;100.00;100493.53;4880623;29;20032;-73
2021/03/18 04:26:19;;;;;;;13.48;10.02;;;;;;;6.28;100.00;100497.81;4880566;29;20037;-73
2021/03/18 04:29:07;;;;;;;14.07;10.20;;;;;;;6.32;100.00;100492.59;4881522;29;20049;-74
2021/03/18 04:31:54;;;;;;;14.18;10.63;;;;;;;6.50;100.00;100495.09;4880843;29;20100;-73
2021/03/18 04:34:42;;;;;;;16.08;11.43;;;;;;;6.58;100.00;100489.84;4880658;29;20025;-74
2021/03/18 04:37:28;;;;;;;20.27;14.00;;;;;;;6.45;100.00;100499.47;4880321;29;20040;-75
2021/03/18 04:40:16;;;;;;;22.92;15.23;;;;;;;6.77;100.00;100499.28;4880015;29;20099;-74
2021/03/18 04:43:02;;;;;;;21.23;14.88;;;;;;;6.79;100.00;100501.00;4880130;29;20069;-74
2021/03/18 04:45:49;;;;;;;25.73;17.13;;;;;;;6.66;100.00;100495.88;4880138;29;20089;-74
2021/03/18 04:48:38;;;;;;;23.60;16.80;;;;;;;6.67;100.00;100506.28;4867213;29;20025;-73
2021/03/18 04:51:25;;;;;;;27.70;18.42;;;;;;;6.57;100.00;100507.22;4867447;29;20033;-74
2021/03/18 04:54:11;;;;;;;25.98;17.58;;;;;;;6.80;100.00;100507.97;4879712;29;20067;-74
2021/03/18 04:56:58;;;;;;;24.67;16.02;;;;;;;6.82;100.00;100508.81;4881155;29;20029;-74
2021/03/18 04:59:44;;;;;;;20.77;13.73;;;;;;;6.32;100.00;100515.13;4879709;29;20121;-75
2021/03/18 05:02:31;;;;;;;21.08;13.57;;;;;;;6.17;100.00;100521.25;4879948;29;20200;-74
2021/03/18 05:05:20;;;;;;;19.77;14.15;;;;;;;6.46;100.00;100526.34;4867061;29;20040;-74
2021/03/18 05:08:07;;;;;;;20.40;14.38;;;;;;;6.40;100.00;100529.84;4879882;29;20096;-74
2021/03/18 05:10:53;;;;;;;21.98;14.32;;;;;;;6.68;100.00;100526.25;4879633;29;20110;-74
2021/03/18 05:13:40;;;;;;;23.02;16.08;;;;;;;6.89;100.00;100520.06;4879993;29;20037;-74
2021/03/18 05:16:26;;;;;;;24.27;16.95;;;;;;;6.85;100.00;100523.53;4866915;29;20035;-74
2021/03/18 05:19:13;;;;;;;26.77;18.42;;;;;;;7.11;100.00;100522.50;4879614;29;20592;-74
2021/03/18 05:21:59;;;;;;;24.17;17.17;;;;;;;7.27;100.00;100528.50;4879472;29;20076;-75
2021/03/18 05:24:45;;;;;;;25.98;17.42;;;;;;;7.09;100.00;100531.22;4866951;29;20109;-74
2021/03/18 05:27:31;;;;;;;22.80;16.58;;;;;;;6.89;100.00;100533.06;4879494;29;20108;-74
2021/03/18 05:30:18;;;;;;;25.77;16.73;;;;;;;7.27;100.00;100539.75;4866113;29;20037;-74
2021/03/18 05:33:04;;;;;;;21.15;14.57;;;;;;;6.71;100.00;100541.00;4879520;29;20095;-75
2021/03/18 05:35:50;;;;;;;21.15;14.00;;;;;;;6.73;100.00;100544.44;4879867;29;20442;-74
2021/03/18 05:38:36;;;;;;;18.80;12.55;;;;;;;6.51;100.00;100548.03;4880391;29;20048;-75
2021/03/18 05:41:22;;;;;;;17.27;12.82;;;;;;;6.92;100.00;100546.97;4866852;29;20087;-75
2021/03/18 05:44:08;;;;;;;19.92;12.93;;;;;;;7.12;100.00;100549.44;4866987;29;20370;-74
2021/03/18 05:46:55;;;;;;;17.40;12.70;;;;;;;7.04;100.00;100551.22;4879274;29;20084;-76
2021/03/18 05:49:44;;;;;;;16.95;11.70;;;;;;;7.48;100.00;100564.81;4879728;29;20301;-75
2021/03/18 05:52:32;;;;;;;16.13;11.23;;;;;;;7.24;100.00;100562.38;4866052;29;20060;-74
2021/03/18 05:55:20;;;;;;;13.95;10.85;;;;;;;7.14;100.00;100564.19;4879880;29;20379;-74
2021/03/18 05:58:08;;;;;;;16.10;10.60;;;;;;;6.97;100.00;100568.63;4879493;29;20102;-74
2021/03/18 06:00:55;;;;;;;14.20;10.18;;;;;;;6.84;100.00;100577.38;4880347;29;20373;-74
2021/03/18 06:03:41;;;;;;;13.90;9.82;;;;;;;7.14;100.00;100577.19;4883620;29;20474;-75
2021/03/18 06:06:27;;;;;;;16.00;11.25;;;;;;;7.33;100.00;100581.44;4869757;29;20036;-74
2021/03/18 06:09:13;;;;;;;13.60;10.05;;;;;;;7.31;100.00;100582.31;4870181;29;20484;-76
2021/03/18 06:11:59;;;;;;;14.13;10.30;;;;;;;7.46;100.00;100583.06;4883134;29;20043;-75
2021/03/18 06:14:45;;;;;;;13.05;9.68;;;;;;;7.41;100.00;100589.19;4869727;29;20124;-74
2021/03/18 06:17:32;;;;;;;15.52;10.35;;;;;;;7.91;100.00;100594.84;4882035;29;20037;-73
2021/03/18 06:20:23;;;;;;;14.27;10.32;;;;;;;7.45;100.00;100597.00;4883997;29;20474;-74
2021/03/18 06:23:09;;;;;;;12.55;9.68;;;;;;;7.23;100.00;100597.97;4882377;29;20033;-74
2021/03/18 06:25:55;;;;;;;15.52;10.40;;;;;;;7.53;100.00;100604.75;4883374;29;20025;-75
2021/03/18 06:28:41;;;;;;;14.27;10.50;;;;;;;7.79;100.00;100608.00;4882772;29;20044;-75
2021/03/18 06:31:30;;;;;;;14.27;10.43;;;;;;;7.65;100.00;100615.09;4882435;29;20029;-74
2021/03/18 06:35:01;;;;;;;14.00;10.13;;;;;;;8.04;100.00;100620.00;4882646;29;20423;-74
2021/03/18 06:37:49;;;;;;;14.85;10.25;;;;;;;7.74;100.00;100626.31;4884540;29;20060;-75
2021/03/18 06:40:40;;;;;;;12.70;9.38;;;;;;;7.94;100.00;100626.16;4868880;29;20352;-75
2021/03/18 06:43:35;;;;;;;13.93;9.90;;;;;;;8.12;100.00;100631.22;4882428;29;20025;-74
2021/03/18 06:46:22;;;;;;;12.88;9.65;;;;;;;8.07;100.00;100641.69;4868781;29;20029;-75
2021/03/18 06:49:16;;;;;;;14.30;10.50;;;;;;;8.18;100.00;100639.84;4881514;29;20040;-75
2021/03/18 06:52:05;;;;;;;14.00;10.80;;;;;;;8.00;100.00;100640.00;4881803;29;20053;-74
2021/03/18 06:54:55;;;;;;;13.38;9.50;;;;;;;8.07;100.00;100644.28;4881876;29;20037;-74
2021/03/18 06:57:40;;;;;;;11.63;8.85;;;;;;;8.48;100.00;100644.78;4881710;29;20124;-74
2021/03/18 07:00:36;;;;;;;17.92;12.50;;;;;;;8.38;100.00;100640.56;4868593;29;20058;-75
2021/03/18 07:03:28;;;;;;;14.18;10.48;;;;;;;8.15;100.00;100645.09;4881733;29;20039;-74
2021/03/18 07:06:29;;;;;;;21.27;13.00;;;;;;;8.25;100.00;100645.91;4881812;29;20197;-74
2021/03/18 07:09:14;;;;;;;13.48;9.35;;;;;;;7.99;100.00;100653.94;4881851;29;20029;-74
2021/03/18 07:12:05;;;;;;;13.43;9.82;;;;;;;8.26;100.00;100656.34;4881049;29;20029;-75
2021/03/18 07:14:53;;;;;;;11.90;9.32;;;;;;;8.61;100.00;100656.00;4881674;29;20029;-74
2021/03/18 07:17:39;;;;;;;13.98;10.20;;;;;;;8.20;100.00;100658.97;4881554;29;20036;-74
2021/03/18 07:20:24;;;;;;;14.43;10.13;;;;;;;8.21;100.00;100649.44;4882757;29;20033;-74
2021/03/18 07:23:16;;;;;;;13.18;9.98;;;;;;;8.45;100.00;100655.25;4881398;29;20029;-75
2021/03/18 07:26:11;;;;;;;13.32;10.32;;;;;;;8.46;100.00;100664.84;4881891;29;20048;-74
2021/03/18 07:29:33;;;;;;;13.60;10.30;;;;;;;8.87;100.00;100665.28;4867960;29;20025;-74
2021/03/18 07:32:18;;;;;;;14.80;10.13;;;;;;;8.43;100.00;100666.59;4777167;30;20123;-74
2021/03/18 07:35:05;;;;;;;12.85;9.98;;;;;;;8.39;100.00;100670.13;4882048;29;20450;-74
2021/03/18 07:37:52;;;;;;;13.15;9.57;;;;;;;8.23;100.00;100668.53;4882325;29;20474;-74
2021/03/18 07:40:38;;;;;;;10.90;8.65;;;;;;;8.15;100.00;100671.19;4882037;29;20409;-75
2021/03/18 07:43:26;;;;;;;11.68;8.95;;;;;;;8.46;100.00;100664.84;4881508;29;20061;-74
2021/03/18 07:46:19;;;;;;;12.05;9.13;;;;;;;8.44;100.00;100670.97;4881887;29;20035;-75
2021/03/18 07:49:14;;;;;;;12.20;8.90;;;;;;;8.81;100.00;100675.78;4881674;29;20022;-74
2021/03/18 07:52:03;;;;;;;13.07;9.10;;;;;;;8.85;100.00;100679.25;4881172;29;20061;-74
2021/03/18 07:54:53;;;;;;;11.68;8.52;;;;;;;9.15;100.00;100682.34;4880918;29;20044;-75
2021/03/18 07:57:50;;;;;;;13.25;8.95;;;;;;;8.91;100.00;100677.41;4881469;29;20451;-74
2021/03/18 08:00:41;;;;;;;11.55;8.88;;;;;;;8.87;100.00;100686.16;4881300;29;20036;-75
2021/03/18 08:03:32;;;;;;;13.38;9.98;;;;;;;8.96;100.00;100693.91;4881066;29;20101;-74
2021/03/18 08:06:40;;;;;;;12.02;9.77;;;;;;;8.61;100.00;100687.31;4881125;29;20327;-73
2021/03/18 08:09:26;;;;;;;12.00;9.52;;;;;;;8.79;100.00;100687.13;4881008;29;20029;-76
2021/03/18 08:12:12;;;;;;;13.73;9.88;;;;;;;8.54;100.00;100690.88;4880591;29;20053;-74
2021/03/18 08:15:26;;;;;;;13.65;9.55;;;;;;;8.90;100.00;100693.97;4882425;29;20029;-75
2021/03/18 08:18:14;;;;;;;14.55;10.30;;;;;;;9.21;100.00;100691.88;4880966;29;20043;-77
2021/03/18 08:21:02;;;;;;;16.52;10.52;;;;;;;9.27;100.00;100692.66;4880416;29;20049;-76
2021/03/18 08:23:49;;;;;;;12.48;9.68;;;;;;;9.50;100.00;100694.97;4879927;29;20029;-76
2021/03/18 08:26:47;;;;;;;12.82;10.38;;;;;;;8.93;100.00;100701.75;4868099;29;20048;-76
2021/03/18 08:29:42;;;;;;;12.63;9.55;;;;;;;9.20;100.00;100698.84;4880978;29;20036;-76
2021/03/18 08:32:30;;;;;;;11.95;9.75;;;;;;;9.27;100.00;100697.88;4880709;29;20029;-74
2021/03/18 08:35:28;;;;;;;11.20;9.57;;;;;;;9.82;100.00;100708.47;4867392;29;20029;-75
2021/03/18 08:38:15;;;;;;;11.65;10.23;;;;;;;9.70;100.00;100701.63;4879478;29;20037;-76
2021/03/18 08:41:01;;;;;;;13.68;11.00;;;;;;;9.87;100.00;100701.41;4866644;29;20044;-75
2021/03/18 08:44:09;;;;;;;14.00;10.30;;;;;;;10.20;100.00;100703.53;4881010;29;20455;-75
2021/03/18 08:47:00;;;;;;;13.18;9.77;;;;;;;10.09;100.00;100715.94;4879856;29;20029;-75
2021/03/18 08:49:46;;;;;;;15.02;11.23;;;;;;;9.77;100.00;100718.13;4880771;29;20172;-75
2021/03/18 08:52:44;;;;;;;13.95;10.60;;;;;;;9.75;100.00;100712.03;4866508;29;20132;-75
2021/03/18 08:55:40;;;;;;;12.82;10.52;;;;;;;9.05;100.00;100717.31;4879979;29;20378;-75
2021/03/18 08:58:26;;;;;;;11.93;9.82;;;;;;;9.55;100.00;100714.94;4866621;29;20474;-76
2021/03/18 09:01:17;;;;;;;13.02;10.82;;;;;;;9.50;100.00;100719.38;4880024;29;20029;-75
2021/03/18 09:04:03;;;;;;;13.30;10.60;;;;;;;9.58;100.00;100724.50;4879714;29;20029;-76
2021/03/18 09:06:52;;;;;;;13.20;10.32;;;;;;;9.28;100.00;100727.50;4866297;29;20029;-76
2021/03/18 09:09:39;;;;;;;13.18;10.80;;;;;;;9.75;100.00;100725.13;4879557;29;20057;-75
2021/03/18 09:12:34;;;;;;;12.70;10.70;;;;;;;9.67;100.00;100727.88;4866242;29;20096;-75
2021/03/18 09:15:34;;;;;;;14.07;10.60;;;;;;;9.48;100.00;100728.97;4880024;29;20473;-75
2021/03/18 09:18:27;;;;;;;11.55;10.00;;;;;;;9.96;100.00;100723.06;4866333;29;20442;-74
2021/03/18 09:21:13;;;;;;;12.43;10.07;;;;;;;8.69;100.00;100742.97;4880305;29;20116;-75
2021/03/18 09:23:59;;;;;;;16.05;12.00;;;;;;;9.04;100.00;100731.25;4880534;29;20464;-76
2021/03/18 09:26:45;;;;;;;13.05;10.27;;;;;;;9.27;100.00;100742.31;4879654;29;20032;-75
2021/03/18 09:29:30;;;;;;;13.85;11.10;;;;;;;9.13;100.00;100746.81;4866631;29;20035;-75
2021/03/18 09:32:16;;;;;;;16.73;12.48;;;;;;;9.13;100.00;100741.59;4879616;29;20097;-75
2021/03/18 09:35:04;;;;;;;12.68;10.60;;;;;;;9.75;100.00;100743.44;4878921;29;20041;-75
2021/03/18 09:37:50;;;;;;;14.45;11.23;;;;;;;9.76;100.00;100750.41;4879412;29;20029;-75
2021/03/18 09:40:36;;;;;;;15.85;12.10;;;;;;;9.99;100.00;100748.31;4880550;29;20128;-75
2021/03/18 09:43:23;;;;;;;12.95;10.93;;;;;;;9.95;100.00;100750.13;4868205;29;20481;-73
2021/03/18 09:46:09;;;;;;;15.50;12.43;;;;;;;10.20;100.00;100750.66;4867900;29;20040;-75
2021/03/18 09:48:55;;;;;;;21.73;16.73;;;;;;;9.74;100.00;100753.03;4866528;29;20037;-75
2021/03/18 09:51:43;;;;;;;22.30;17.17;;;;;;;10.58;100.00;100756.16;4866464;29;20108;-75
2021/03/18 09:54:29;;;;;;;24.17;18.15;;;;;;;10.51;100.00;100758.88;4882218;29;20036;-75
2021/03/18 09:57:16;;;;;;;17.60;14.23;;;;;;;10.59;100.00;100757.88;4879615;29;20032;-75
2021/03/18 10:00:02;;;;;;;15.25;12.48;;;;;;;10.47;100.00;100765.06;4880275;29;20041;-76
2021/03/18 10:02:51;;;;;;;12.77;10.80;;;;;;;10.25;100.00;100761.94;4881215;29;20037;-76
2021/03/18 10:05:45;;;;;;;14.45;11.63;;;;;;;10.69;100.00;100759.44;4880185;29;20097;-73
2021/03/18 10:08:30;;;;;;;14.90;12.48;;;;;;;10.72;100.00;100759.38;4866735;29;20530;-74
2021/03/18 10:11:16;;;;;;;14.85;12.43;;;;;;;10.50;100.00;100763.28;4866836;29;20129;-73
2021/03/18 10:14:02;;;;;;;14.07;11.65;;;;;;;10.80;100.00;100769.75;4879364;29;20029;-74
2021/03/18 10:16:51;;;;;;;13.35;11.07;;;;;;;10.24;100.00;100760.19;4865647;29;20451;-73
2021/03/18 10:20:07;;;;;;;15.27;11.30;;;;;;;11.00;100.00;100772.84;4880263;29;20061;-73
2021/03/18 10:23:07;;;;;;;15.32;11.05;;;;;;;10.49;100.00;100769.38;4878926;29;20450;-74
2021/03/18 10:25:53;;;;;;;17.25;11.52;;;;;;;10.66;100.00;100764.75;4879176;29;20029;-74
2021/03/18 10:28:39;;;;;;;14.88;11.30;;;;;;;10.89;100.00;100770.44;4864836;29;20344;-73
2021/03/18 10:31:25;;;;;;;13.75;11.27;;;;;;;10.87;100.00;100767.00;4878852;29;20025;-73
2021/03/18 10:34:24;;;;;;;15.18;11.68;;;;;;;10.49;100.00;100766.75;4878533;29;20033;-75
2021/03/18 10:37:25;;;;;;;11.98;10.63;;;;;;;10.81;100.00;100769.69;4879347;29;20033;-75
2021/03/18 10:40:16;;;;;;;11.85;10.38;;;;;;;10.65;100.00;100768.25;4866049;29;20037;-76
2021/03/18 10:43:15;;;;;;;13.05;10.15;;;;;;;11.28;100.00;100768.81;4865807;29;20025;-75
2021/03/18 10:46:14;;;;;;;14.15;10.48;;;;;;;9.99;100.00;100769.28;4878612;29;20477;-74
2021/03/18 10:49:04;;;;;;;11.45;10.10;;;;;;;10.18;100.00;100760.28;4881718;29;20110;-74
2021/03/18 10:51:53;;;;;;;11.15;9.27;;;;;;;10.61;100.00;100766.56;4882361;29;20037;-74
2021/03/18 10:54:42;;;;;;;12.07;9.95;;;;;;;9.94;100.00;100764.09;4881967;29;20032;-74
2021/03/18 10:57:27;;;;;;;14.90;9.20;;;;;;;10.10;100.00;100751.69;4882138;29;20041;-73
2021/03/18 11:00:21;;;;;;;12.38;9.88;;;;;;;10.74;100.00;100757.63;4882672;29;20120;-74
2021/03/18 11:03:15;;;;;;;11.00;8.77;;;;;;;10.63;100.00;100758.69;4882779;29;20033;-74
2021/03/18 11:06:12;;;;;;;12.13;8.75;;;;;;;11.06;100.00;100760.53;4881722;29;20417;-74
2021/03/18 11:08:58;;;;;;;10.68;9.32;;;;;;;11.81;100.00;100761.63;4882001;29;20120;-74
2021/03/18 11:11:57;;;;;;;12.95;9.10;;;;;;;11.10;100.00;100758.69;4882335;29;20060;-74
2021/03/18 11:14:56;;;;;;;13.50;9.15;;;;;;;9.82;100.00;100761.63;4869275;29;20060;-73
2021/03/18 11:17:41;;;;;;;11.15;8.23;;;;;;;10.09;100.00;100763.06;4869439;29;20033;-74
2021/03/18 11:20:34;;;;;;;11.07;9.23;;;;;;;10.63;100.00;100754.31;4882168;29;20040;-73
2021/03/18 11:23:37;;;;;;;8.65;7.68;;;;;;;11.19;100.00;100761.13;4881606;29;20033;-74
2021/03/18 11:26:25;;;;;;;10.82;8.43;;;;;;;10.86;100.00;100760.03;4882672;29;20092;-74
2021/03/18 11:29:16;;;;;;;10.88;8.68;;;;;;;10.82;100.00;100758.34;4881421;29;20037;-74
2021/03/18 11:32:05;;;;;;;10.57;9.02;;;;;;;10.37;100.00;100756.47;4881482;29;20133;-74
2021/03/18 11:34:56;;;;;;;9.85;8.45;;;;;;;11.06;100.00;100757.91;4881407;29;20181;-73
2021/03/18 11:37:42;;;;;;;10.27;9.15;;;;;;;9.92;100.00;100751.91;4881679;29;20029;-73
2021/03/18 11:40:27;;;;;;;10.73;9.63;;;;;;;9.96;100.00;100754.47;4867807;29;20029;-75
2021/03/18 11:43:14;;;;;;;10.73;9.63;;;;;;;10.08;100.00;100748.22;4881096;29;20029;-75
2021/03/18 11:46:01;;;;;;;12.93;10.38;;;;;;;10.65;100.00;100747.28;4881532;29;20093;-75
2021/03/18 11:48:47;;;;;;;13.45;10.20;;;;;;;10.50;100.00;100757.16;4881069;29;20493;-75
2021/03/18 11:51:33;;;;;;;22.67;18.65;;;;;;;10.56;100.00;100750.06;4881598;29;20423;-75
2021/03/18 11:54:18;;;;;;;16.55;11.23;;;;;;;10.88;100.00;100750.38;4880728;29;20029;-75
2021/03/18 11:57:06;;;;;;;14.15;12.23;;;;;;;10.87;100.00;100753.88;4880726;29;20064;-73
2021/03/18 11:59:51;;;;;;;11.65;10.38;;;;;;;10.51;100.00;100754.53;4879920;29;20025;-76
2021/03/18 12:02:37;;;;;;;11.90;10.60;;;;;;;10.52;100.00;100744.91;4881485;29;20047;-74
2021/03/18 12:05:24;;;;;;;11.57;10.20;;;;;;;10.98;100.00;100748.44;4880568;29;20033;-74
2021/03/18 12:08:11;;;;;;;11.15;9.82;;;;;;;10.99;100.00;100748.41;4882809;29;20032;-74
2021/03/18 12:10:57;;;;;;;10.43;9.32;;;;;;;10.68;100.00;100752.47;4880809;29;20068;-75
2021/03/18 12:13:43;;;;;;;12.75;10.85;;;;;;;9.86;100.00;100742.41;4867953;29;20033;-75
2021/03/18 12:16:28;;;;;;;10.70;9.60;;;;;;;10.51;100.00;100744.03;4880712;29;20033;-75
2021/03/18 12:19:14;;;;;;;10.10;8.93;;;;;;;11.01;100.00;100743.16;4880557;29;20037;-75
2021/03/18 12:22:00;;;;;;;10.90;9.30;;;;;;;11.30;100.00;100746.94;4880735;29;20052;-74
2021/03/18 12:24:49;;;;;;;10.57;8.65;;;;;;;10.33;100.00;100748.72;4881709;29;20347;-75
2021/03/18 12:27:35;;;;;;;9.48;8.32;;;;;;;10.56;100.00;100755.31;4882508;29;20336;-75
2021/03/18 12:30:22;;;;;;;10.57;9.10;;;;;;;10.26;100.00;100757.56;4880046;29;20375;-75
2021/03/18 12:33:08;;;;;;;11.00;9.48;;;;;;;10.61;100.00;100763.94;4881003;29;20062;-73
2021/03/18 12:35:54;;;;;;;12.20;10.35;;;;;;;11.00;100.00;100760.63;4867637;29;20067;-76
2021/03/18 12:38:40;;;;;;;13.70;10.95;;;;;;;11.07;100.00;100772.72;4880395;29;20033;-73
2021/03/18 12:41:25;;;;;;;11.73;10.52;;;;;;;10.87;100.00;100767.00;4880215;29;20469;-74
2021/03/18 12:44:11;;;;;;;18.45;11.93;;;;;;;10.98;100.00;100762.44;4880449;29;20139;-74
2021/03/18 12:46:57;;;;;;;16.35;13.73;;;;;;;10.78;100.00;100769.78;4879641;29;20033;-74
2021/03/18 12:49:46;;;;;;;14.45;12.35;;;;;;;11.07;100.00;100770.13;4880905;29;20025;-73
2021/03/18 12:52:32;;;;;;;14.55;12.93;;;;;;;10.51;100.00;100778.09;4879846;29;20064;-75
2021/03/18 12:55:21;;;;;;;14.10;12.43;;;;;;;10.06;100.00;100778.81;4880990;29;20477;-75